createdAt,value
2023-04-27T00:01:52.627Z,101457.56
2023-04-27T00:04:20.682Z,101460.03
2023-04-27T00:06:47.354Z,101462.97
2023-04-27T00:09:13.941Z,101458.97
2023-04-27T00:11:40.628Z,101459.88
2023-04-27T00:14:07.059Z,101458.25
2023-04-27T00:16:33.589Z,101455.84
2023-04-27T00:19:00.776Z,101458.34
2023-04-27T00:21:27.205Z,101451.16
2023-04-27T00:23:54.525Z,101445.94
2023-04-27T00:26:22.307Z,101451.25
2023-04-27T00:28:50.720Z,101448.41
2023-04-27T00:31:17.190Z,101450.91
2023-04-27T00:33:43.623Z,101447.72
2023-04-27T00:36:10.147Z,101450.63
2023-04-27T00:38:36.889Z,101447.00
2023-04-27T00:41:07.235Z,101446.66
2023-04-27T00:43:42.031Z,101450.38
2023-04-27T00:46:09.202Z,101444.34
2023-04-27T00:48:35.825Z,101441.13
2023-04-27T00:51:02.329Z,101446.00
2023-04-27T00:53:29.383Z,101440.44
2023-04-27T00:55:57.845Z,101441.31
2023-04-27T00:58:25.519Z,101445.38
2023-04-27T01:00:52.288Z,101441.03
2023-04-27T01:03:18.935Z,101454.31
2023-04-27T01:05:45.878Z,101443.06
2023-04-27T01:08:13.411Z,101451.59
2023-04-27T01:10:41.160Z,101446.44
2023-04-27T01:13:10.129Z,101455.28
2023-04-27T01:15:37.906Z,101448.88
2023-04-27T01:18:09.441Z,101451.38
2023-04-27T01:20:36.259Z,101454.22
2023-04-27T01:23:03.395Z,101459.53
2023-04-27T01:25:29.838Z,101464.03
2023-04-27T01:27:56.360Z,101467.31
2023-04-27T01:30:22.973Z,101469.38
2023-04-27T01:32:50.055Z,101473.50
2023-04-27T01:35:18.994Z,101473.50
2023-04-27T01:37:45.722Z,101477.22
2023-04-27T01:40:13.071Z,101466.75
2023-04-27T01:42:39.495Z,101472.41
2023-04-27T01:45:09.057Z,101472.50
2023-04-27T01:47:35.658Z,101478.63
2023-04-27T01:50:02.311Z,101475.44
2023-04-27T01:52:28.787Z,101477.91
2023-04-27T01:54:55.490Z,101481.97
2023-04-27T01:57:22.692Z,101484.06
2023-04-27T01:59:49.217Z,101483.72
2023-04-27T02:02:15.773Z,101496.66
2023-04-27T02:04:43.225Z,101495.50
2023-04-27T02:07:10.974Z,101493.53
2023-04-27T02:09:37.538Z,101502.47
2023-04-27T02:12:04.141Z,101507.78
2023-04-27T02:14:30.545Z,101504.22
2023-04-27T02:16:56.963Z,101504.22
2023-04-27T02:19:23.382Z,101515.19
2023-04-27T02:21:49.821Z,101508.38
2023-04-27T02:24:16.452Z,101518.09
2023-04-27T02:26:44.933Z,101521.38
2023-04-27T02:29:11.511Z,101523.84
2023-04-27T02:31:38.566Z,101512.13
2023-04-27T02:34:05.178Z,101513.81
2023-04-27T02:36:31.974Z,101522.31
2023-04-27T02:38:58.411Z,101519.91
2023-04-27T02:41:27.805Z,101517.94
2023-04-27T02:43:54.220Z,101514.31
2023-04-27T02:46:20.750Z,101519.25
2023-04-27T02:48:47.188Z,101514.38
2023-04-27T02:51:13.665Z,101516.84
2023-04-27T02:53:40.147Z,101512.03
2023-04-27T02:56:06.671Z,101511.25
2023-04-27T02:58:33.143Z,101518.56
2023-04-27T03:00:59.672Z,101515.38
2023-04-27T03:03:26.400Z,101515.81
2023-04-27T03:05:52.916Z,101511.44
2023-04-27T03:08:19.355Z,101520.28
2023-04-27T03:10:45.814Z,101518.72
2023-04-27T03:13:12.206Z,101517.09
2023-04-27T03:15:38.657Z,101513.13
2023-04-27T03:18:05.610Z,101510.72
2023-04-27T03:20:33.656Z,101526.47
2023-04-27T03:23:00.140Z,101524.47
2023-04-27T03:25:26.670Z,101522.88
2023-04-27T03:27:53.125Z,101522.91
2023-04-27T03:30:22.730Z,101528.16
2023-04-27T03:32:49.202Z,101520.53
2023-04-27T03:35:15.889Z,101524.59
2023-04-27T03:37:42.348Z,101521.41
2023-04-27T03:40:09.365Z,101521.41
2023-04-27T03:42:36.551Z,101521.44
2023-04-27T03:45:03.057Z,101531.13
2023-04-27T03:47:29.648Z,101521.88
2023-04-27T03:49:57.020Z,101525.13
2023-04-27T03:52:23.517Z,101526.81
2023-04-27T03:54:50.207Z,101537.28
2023-04-27T03:57:17.884Z,101538.16
2023-04-27T03:59:44.288Z,101545.03
2023-04-27T04:02:11.620Z,101539.34
2023-04-27T04:04:38.501Z,101548.28
2023-04-27T04:07:05.774Z,101545.03
2023-04-27T04:09:32.334Z,101544.31
2023-04-27T04:11:59.293Z,101546.72
2023-04-27T04:14:27.234Z,101543.91
2023-04-27T04:16:54.576Z,101542.31
2023-04-27T04:19:22.104Z,101550.81
2023-04-27T04:21:48.809Z,101539.16
2023-04-27T04:24:16.088Z,101554.50
2023-04-27T04:26:43.085Z,101550.56
2023-04-27T04:29:10.968Z,101554.16
2023-04-27T04:31:38.254Z,101566.25
2023-04-27T04:34:04.892Z,101565.06
2023-04-27T04:36:32.029Z,101557.44
2023-04-27T04:38:58.633Z,101555.84
2023-04-27T04:41:26.203Z,101560.25
2023-04-27T04:43:52.699Z,101555.84
2023-04-27T04:46:19.940Z,101564.34
2023-04-27T04:48:46.848Z,101561.13
2023-04-27T04:51:13.440Z,101564.78
2023-04-27T04:53:39.976Z,101570.88
2023-04-27T04:56:10.944Z,101566.06
2023-04-27T04:58:37.457Z,101570.50
2023-04-27T05:01:04.731Z,101576.16
2023-04-27T05:03:31.662Z,101571.72
2023-04-27T05:05:58.180Z,101582.63
2023-04-27T05:08:24.865Z,101575.34
2023-04-27T05:10:52.535Z,101573.75
2023-04-27T05:13:19.668Z,101574.19
2023-04-27T05:15:46.722Z,101573.69
2023-04-27T05:18:13.217Z,101580.22
2023-04-27T05:20:39.596Z,101578.09
2023-04-27T05:23:06.024Z,101581.34
2023-04-27T05:25:33.017Z,101580.09
2023-04-27T05:27:59.467Z,101584.97
2023-04-27T05:30:26.020Z,101581.69
2023-04-27T05:32:52.653Z,101582.88
2023-04-27T05:35:19.082Z,101593.31
2023-04-27T05:37:45.512Z,101590.91
2023-04-27T05:40:12.437Z,101582.34
2023-04-27T05:42:39.007Z,101589.53
2023-04-27T05:45:09.273Z,101589.84
2023-04-27T05:47:36.480Z,101584.56
2023-04-27T05:50:03.758Z,101590.53
2023-04-27T05:52:31.288Z,101587.63
2023-04-27T05:54:58.593Z,101597.69
2023-04-27T05:57:26.033Z,101602.09
2023-04-27T05:59:53.167Z,101593.16
2023-04-27T06:02:20.003Z,101593.91
2023-04-27T06:04:46.662Z,101592.25
2023-04-27T06:07:14.662Z,101605.13
2023-04-27T06:09:41.910Z,101608.28
2023-04-27T06:12:09.329Z,101596.53
2023-04-27T06:14:37.541Z,101602.09
2023-04-27T06:17:04.358Z,101605.28
2023-04-27T06:19:31.493Z,101611.31
2023-04-27T06:21:57.878Z,101607.28
2023-04-27T06:24:24.318Z,101615.69
2023-04-27T06:26:51.071Z,101620.09
2023-04-27T06:29:17.718Z,101611.94
2023-04-27T06:31:44.446Z,101609.50
2023-04-27T06:34:10.981Z,101614.28
2023-04-27T06:36:37.390Z,101615.09
2023-04-27T06:39:03.806Z,101615.00
2023-04-27T06:41:30.641Z,101612.53
2023-04-27T06:43:58.566Z,101616.56
2023-04-27T06:46:26.035Z,101608.84
2023-04-27T06:48:52.744Z,101610.81
2023-04-27T06:51:19.413Z,101610.38
2023-04-27T06:53:45.881Z,101604.28
2023-04-27T06:56:12.364Z,101618.81
2023-04-27T06:58:38.760Z,101618.31
2023-04-27T07:01:05.325Z,101617.06
2023-04-27T07:03:34.892Z,101614.63
2023-04-27T07:06:01.665Z,101610.53
2023-04-27T07:08:28.097Z,101616.50
2023-04-27T07:10:56.046Z,101617.66
2023-04-27T07:13:22.562Z,101610.84
2023-04-27T07:15:54.831Z,101618.41
2023-04-27T07:18:21.303Z,101620.03
2023-04-27T07:20:47.679Z,101619.50
2023-04-27T07:23:14.581Z,101620.66
2023-04-27T07:25:41.025Z,101621.47
2023-04-27T07:28:07.554Z,101626.72
2023-04-27T07:30:36.410Z,101634.72
2023-04-27T07:33:03.052Z,101637.47
2023-04-27T07:35:29.686Z,101643.16
2023-04-27T07:37:56.593Z,101639.78
2023-04-27T07:40:24.176Z,101645.03
2023-04-27T07:42:51.127Z,101642.53
2023-04-27T07:45:17.978Z,101657.41
2023-04-27T07:47:44.620Z,101658.22
2023-04-27T07:50:11.192Z,101642.69
2023-04-27T07:52:37.593Z,101651.16
2023-04-27T07:55:04.660Z,101650.28
2023-04-27T07:57:31.476Z,101638.47
2023-04-27T07:59:58.037Z,101652.06
2023-04-27T08:02:26.762Z,101648.78
2023-04-27T08:04:53.529Z,101640.63
2023-04-27T08:07:20.437Z,101641.38
2023-04-27T08:09:47.032Z,101633.09
2023-04-27T08:12:13.936Z,101633.94
2023-04-27T08:14:40.419Z,101633.84
2023-04-27T08:17:06.998Z,101642.63
2023-04-27T08:19:33.483Z,101640.50
2023-04-27T08:22:00.757Z,101648.94
2023-04-27T08:24:27.178Z,101648.84
2023-04-27T08:26:53.592Z,101639.09
2023-04-27T08:29:27.960Z,101647.09
2023-04-27T08:31:58.605Z,101646.22
2023-04-27T08:34:25.703Z,101649.78
2023-04-27T08:36:52.129Z,101653.31
2023-04-27T08:39:18.939Z,101643.91
2023-04-27T08:41:46.272Z,101628.47
2023-04-27T08:44:12.790Z,101639.31
2023-04-27T08:46:39.559Z,101626.25
2023-04-27T08:49:07.395Z,101631.84
2023-04-27T08:51:34.509Z,101633.38
2023-04-27T08:54:01.317Z,101627.56
2023-04-27T08:56:29.137Z,101615.75
2023-04-27T08:58:57.294Z,101628.19
2023-04-27T09:01:25.157Z,101633.44
2023-04-27T09:04:00.013Z,101622.41
2023-04-27T09:06:32.043Z,101628.81
2023-04-27T09:08:59.002Z,101627.91
2023-04-27T09:11:37.071Z,101624.72
2023-04-27T09:14:19.334Z,101627.00
2023-04-27T09:16:46.420Z,101625.00
2023-04-27T09:19:24.066Z,101629.41
2023-04-27T09:21:51.612Z,101626.88
2023-04-27T09:24:18.063Z,101620.38
2023-04-27T09:26:49.950Z,101623.94
2023-04-27T09:29:16.403Z,101623.47
2023-04-27T09:31:42.823Z,101618.59
2023-04-27T09:34:09.236Z,101622.59
2023-04-27T09:36:36.030Z,101613.50
2023-04-27T09:39:06.433Z,101604.97
2023-04-27T09:41:33.327Z,101614.22
2023-04-27T09:44:00.133Z,101616.63
2023-04-27T09:46:29.821Z,101618.09
2023-04-27T09:48:57.340Z,101611.88
2023-04-27T09:51:23.746Z,101609.03
2023-04-27T09:53:54.154Z,101606.88
2023-04-27T09:56:28.340Z,101614.50
2023-04-27T09:59:23.166Z,101603.13
2023-04-27T10:01:55.158Z,101606.41
2023-04-27T10:04:55.878Z,101610.75
2023-04-27T10:07:22.960Z,101611.81
2023-04-27T10:09:51.692Z,101605.22
2023-04-27T10:12:26.199Z,101607.50
2023-04-27T10:14:58.205Z,101599.75
2023-04-27T10:17:32.727Z,101598.06
2023-04-27T10:20:01.437Z,101604.81
2023-04-27T10:22:58.142Z,101602.28
2023-04-27T10:25:38.912Z,101602.19
2023-04-27T10:28:07.979Z,101598.78
2023-04-27T10:30:37.307Z,101610.06
2023-04-27T10:33:09.745Z,101600.63
2023-04-27T10:35:38.683Z,101608.72
2023-04-27T10:38:09.948Z,101607.34
2023-04-27T10:40:39.656Z,101608.50
2023-04-27T10:43:14.265Z,101612.03
2023-04-27T10:45:42.486Z,101610.31
2023-04-27T10:48:13.018Z,101605.78
2023-04-27T10:50:40.423Z,101601.19
2023-04-27T10:53:08.084Z,101609.66
2023-04-27T10:55:35.571Z,101600.28
2023-04-27T10:58:02.490Z,101607.94
2023-04-27T11:00:32.392Z,101601.66
2023-04-27T11:03:11.894Z,101607.72
2023-04-27T11:05:38.982Z,101604.88
2023-04-27T11:08:08.321Z,101599.38
2023-04-27T11:10:38.102Z,101603.72
2023-04-27T11:13:09.179Z,101588.31
2023-04-27T11:15:43.721Z,101599.97
2023-04-27T11:18:10.831Z,101610.13
2023-04-27T11:20:37.305Z,101602.56
2023-04-27T11:23:04.258Z,101602.56
2023-04-27T11:25:30.719Z,101603.25
2023-04-27T11:27:57.130Z,101583.31
2023-04-27T11:30:24.098Z,101587.75
2023-04-27T11:32:51.259Z,101585.56
2023-04-27T11:35:18.297Z,101590.69
2023-04-27T11:37:44.919Z,101597.09
2023-04-27T11:40:14.386Z,101599.03
2023-04-27T11:42:43.546Z,101596.84
2023-04-27T11:45:12.172Z,101595.13
2023-04-27T11:47:40.891Z,101590.91
2023-04-27T11:50:08.422Z,101586.13
2023-04-27T11:52:37.073Z,101598.88
2023-04-27T11:55:04.905Z,101595.09
2023-04-27T11:57:34.038Z,101591.34
2023-04-27T12:00:02.332Z,101596.91
2023-04-27T12:02:40.406Z,101589.50
2023-04-27T12:05:08.006Z,101600.81
2023-04-27T12:07:35.831Z,101598.19
2023-04-27T12:10:02.284Z,101600.09
2023-04-27T12:12:28.781Z,101602.03
2023-04-27T12:14:55.281Z,101603.63
2023-04-27T12:17:21.715Z,101605.56
2023-04-27T12:19:48.134Z,101601.31
2023-04-27T12:22:14.564Z,101598.00
2023-04-27T12:24:41.022Z,101600.72
2023-04-27T12:27:08.323Z,101602.34
2023-04-27T12:29:35.085Z,101600.59
2023-04-27T12:32:01.622Z,101590.78
2023-04-27T12:34:30.812Z,101600.91
2023-04-27T12:36:57.264Z,101594.63
2023-04-27T12:39:25.351Z,101602.28
2023-04-27T12:41:53.694Z,101596.22
2023-04-27T12:44:21.553Z,101583.41
2023-04-27T12:46:49.037Z,101587.72
2023-04-27T12:49:16.620Z,101588.41
2023-04-27T12:51:43.249Z,101598.53
2023-04-27T12:54:11.167Z,101594.75
2023-04-27T12:56:37.768Z,101601.16
2023-04-27T12:59:05.858Z,101598.75
2023-04-27T13:01:32.424Z,101603.41
2023-04-27T13:04:01.638Z,101599.28
2023-04-27T13:06:29.405Z,101592.63
2023-04-27T13:08:56.363Z,101592.63
2023-04-27T13:11:24.270Z,101600.25
2023-04-27T13:13:50.966Z,101599.94
2023-04-27T13:16:19.586Z,101605.50
2023-04-27T13:18:49.808Z,101598.22
2023-04-27T13:21:16.613Z,101599.81
2023-04-27T13:23:43.457Z,101602.06
2023-04-27T13:26:10.267Z,101584.13
2023-04-27T13:28:36.778Z,101593.03
2023-04-27T13:31:04.041Z,101599.41
2023-04-27T13:33:32.051Z,101599.41
2023-04-27T13:36:02.007Z,101591.16
2023-04-27T13:38:28.911Z,101585.44
2023-04-27T13:40:55.424Z,101587.81
2023-04-27T13:43:21.907Z,101590.56
2023-04-27T13:45:49.809Z,101588.03
2023-04-27T13:48:16.258Z,101590.88
2023-04-27T13:50:42.687Z,101583.41
2023-04-27T13:53:09.427Z,101582.31
2023-04-27T13:55:36.486Z,101599.97
2023-04-27T13:58:03.030Z,101589.03
2023-04-27T14:00:33.331Z,101590.13
2023-04-27T14:03:01.423Z,101598.56
2023-04-27T14:05:27.976Z,101595.38
2023-04-27T14:07:54.436Z,101587.94
2023-04-27T14:10:20.919Z,101584.63
2023-04-27T14:12:47.473Z,101590.34
2023-04-27T14:15:14.417Z,101585.41
2023-04-27T14:17:41.194Z,101589.88
2023-04-27T14:20:08.297Z,101587.00
2023-04-27T14:22:36.172Z,101587.00
2023-04-27T14:25:03.013Z,101582.41
2023-04-27T14:27:29.610Z,101580.34
2023-04-27T14:29:56.456Z,101566.53
2023-04-27T14:32:23.380Z,101568.47
2023-04-27T14:34:49.833Z,101568.78
2023-04-27T14:37:16.279Z,101566.38
2023-04-27T14:39:45.123Z,101571.47
2023-04-27T14:42:11.910Z,101565.28
2023-04-27T14:44:38.325Z,101563.69
2023-04-27T14:47:04.943Z,101557.03
2023-04-27T14:49:32.056Z,101561.81
2023-04-27T14:52:00.426Z,101545.75
2023-04-27T14:54:26.881Z,101560.88
2023-04-27T14:56:53.369Z,101566.91
2023-04-27T14:59:19.873Z,101567.25
2023-04-27T15:01:46.420Z,101559.00
2023-04-27T15:04:12.999Z,101560.59
2023-04-27T15:06:39.503Z,101551.53
2023-04-27T15:09:06.206Z,101563.78
2023-04-27T15:11:32.888Z,101551.41
2023-04-27T15:13:59.341Z,101552.97
2023-04-27T15:16:25.949Z,101567.59
2023-04-27T15:18:52.428Z,101567.13
2023-04-27T15:21:18.854Z,101558.09
2023-04-27T15:23:45.364Z,101562.53
2023-04-27T15:26:11.819Z,101561.56
2023-04-27T15:28:38.527Z,101548.56
2023-04-27T15:31:05.276Z,101552.69
2023-04-27T15:33:31.791Z,101560.31
2023-04-27T15:35:59.085Z,101558.56
2023-04-27T15:38:26.326Z,101554.13
2023-04-27T15:40:52.816Z,101554.00
2023-04-27T15:43:19.287Z,101548.28
2023-04-27T15:45:45.863Z,101545.72
2023-04-27T15:48:12.420Z,101548.13
2023-04-27T15:50:39.289Z,101545.72
2023-04-27T15:53:06.198Z,101536.69
2023-04-27T15:55:32.787Z,101545.44
2023-04-27T15:57:59.212Z,101540.03
2023-04-27T16:00:25.730Z,101534.97
2023-04-27T16:02:52.458Z,101521.75
2023-04-27T16:05:19.090Z,101511.28
2023-04-27T16:07:45.923Z,101520.53
2023-04-27T16:10:13.129Z,101518.13
2023-04-27T16:12:39.753Z,101527.81
2023-04-27T16:15:10.079Z,101527.66
2023-04-27T16:17:37.825Z,101518.59
2023-04-27T16:20:07.931Z,101515.91
2023-04-27T16:22:34.900Z,101515.25
2023-04-27T16:25:02.193Z,101518.75
2023-04-27T16:27:28.600Z,101518.75
2023-04-27T16:29:55.724Z,101509.19
2023-04-27T16:32:23.227Z,101512.72
2023-04-27T16:34:49.955Z,101514.94
2023-04-27T16:37:16.428Z,101505.84
2023-04-27T16:39:42.892Z,101514.28
2023-04-27T16:42:09.701Z,101503.78
2023-04-27T16:44:37.967Z,101510.94
2023-04-27T16:47:04.443Z,101518.88
2023-04-27T16:49:30.928Z,101518.69
2023-04-27T16:51:57.429Z,101505.97
2023-04-27T16:54:23.854Z,101516.78
2023-04-27T16:56:50.305Z,101506.91
2023-04-27T16:59:17.148Z,101527.09
2023-04-27T17:01:50.198Z,101519.94
2023-04-27T17:04:17.043Z,101518.66
2023-04-27T17:06:45.820Z,101517.22
2023-04-27T17:09:12.437Z,101522.47
2023-04-27T17:11:38.934Z,101523.72
2023-04-27T17:14:05.454Z,101521.66
2023-04-27T17:16:31.951Z,101528.81
2023-04-27T17:18:58.422Z,101533.56
2023-04-27T17:21:27.317Z,101533.28
2023-04-27T17:23:53.889Z,101530.72
2023-04-27T17:26:21.477Z,101531.19
2023-04-27T17:28:48.232Z,101537.56
2023-04-27T17:31:17.351Z,101534.38
2023-04-27T17:33:44.162Z,101539.31
2023-04-27T17:36:11.230Z,101533.28
2023-04-27T17:38:37.724Z,101536.13
2023-04-27T17:41:04.189Z,101534.53
2023-04-27T17:43:30.762Z,101530.59
2023-04-27T17:45:57.267Z,101530.09
2023-04-27T17:48:24.113Z,101520.88
2023-04-27T17:50:50.530Z,101523.44
2023-04-27T17:53:17.012Z,101523.72
2023-04-27T17:55:47.599Z,101522.66
2023-04-27T17:58:15.397Z,101519.44
2023-04-27T18:00:43.055Z,101509.75
2023-04-27T18:03:09.975Z,101508.16
2023-04-27T18:05:36.728Z,101512.00
2023-04-27T18:08:03.576Z,101505.94
2023-04-27T18:10:33.070Z,101510.09
2023-04-27T18:12:59.738Z,101512.66
2023-04-27T18:15:26.154Z,101507.88
2023-04-27T18:17:52.594Z,101508.84
2023-04-27T18:20:19.103Z,101509.78
2023-04-27T18:22:45.577Z,101505.84
2023-04-27T18:25:13.089Z,101524.59
2023-04-27T18:27:39.545Z,101526.38
2023-04-27T18:30:07.774Z,101524.78
2023-04-27T18:32:34.838Z,101526.69
2023-04-27T18:35:02.286Z,101521.91
2023-04-27T18:37:29.289Z,101532.09
2023-04-27T18:39:56.155Z,101514.44
2023-04-27T18:42:23.396Z,101528.75
2023-04-27T18:44:52.005Z,101520.34
2023-04-27T18:47:18.489Z,101523.22
2023-04-27T18:49:44.882Z,101522.56
2023-04-27T18:52:11.606Z,101532.44
2023-04-27T18:54:38.610Z,101523.50
2023-04-27T18:57:05.060Z,101530.19
2023-04-27T18:59:31.549Z,101528.78
2023-04-27T19:01:58.117Z,101537.84
2023-04-27T19:04:26.089Z,101528.63
2023-04-27T19:06:52.607Z,101532.44
2023-04-27T19:09:19.216Z,101535.78
2023-04-27T19:11:49.418Z,101535.94
2023-04-27T19:14:19.778Z,101542.63
2023-04-27T19:16:46.477Z,101537.06
2023-04-27T19:19:13.263Z,101537.53
2023-04-27T19:21:41.810Z,101544.69
2023-04-27T19:24:08.358Z,101536.56
2023-04-27T19:26:35.151Z,101541.97
2023-04-27T19:29:02.261Z,101541.00
2023-04-27T19:31:28.776Z,101549.28
2023-04-27T19:33:55.808Z,101551.78
2023-04-27T19:36:30.629Z,101538.91
2023-04-27T19:38:57.257Z,101540.66
2023-04-27T19:41:25.014Z,101540.34
2023-04-27T19:43:51.463Z,101552.28
2023-04-27T19:46:17.950Z,101541.31
2023-04-27T19:48:44.392Z,101542.69
2023-04-27T19:51:10.984Z,101543.47
2023-04-27T19:53:38.087Z,101531.53
2023-04-27T19:56:04.550Z,101529.00
2023-04-27T19:58:31.147Z,101535.81
2023-04-27T20:00:57.671Z,101535.03
2023-04-27T20:03:24.449Z,101532.63
2023-04-27T20:05:51.636Z,101535.97
2023-04-27T20:08:18.352Z,101537.84
2023-04-27T20:10:44.777Z,101545.97
2023-04-27T20:13:11.253Z,101548.50
2023-04-27T20:15:37.705Z,101530.72
2023-04-27T20:18:04.346Z,101529.25
2023-04-27T20:20:30.884Z,101534.16
2023-04-27T20:22:57.372Z,101540.34
2023-04-27T20:25:26.189Z,101542.09
2023-04-27T20:27:52.908Z,101533.81
2023-04-27T20:30:19.432Z,101534.63
2023-04-27T20:32:46.529Z,101541.28
2023-04-27T20:35:13.222Z,101533.50
2023-04-27T20:37:41.865Z,101538.88
2023-04-27T20:40:13.432Z,101538.53
2023-04-27T20:42:40.770Z,101532.97
2023-04-27T20:45:10.183Z,101530.28
2023-04-27T20:47:37.649Z,101534.72
2023-04-27T20:50:04.932Z,101523.41
2023-04-27T20:52:33.912Z,101532.47
2023-04-27T20:55:01.408Z,101520.06
2023-04-27T20:57:27.859Z,101523.41
2023-04-27T20:59:54.367Z,101529.91
2023-04-27T21:02:20.827Z,101526.38
2023-04-27T21:04:48.259Z,101534.94
2023-04-27T21:07:14.738Z,101528.59
2023-04-27T21:09:41.591Z,101532.69
2023-04-27T21:12:08.673Z,101534.78
2023-04-27T21:14:35.172Z,101526.34
2023-04-27T21:17:01.734Z,101529.22
2023-04-27T21:19:28.193Z,101525.53
2023-04-27T21:21:54.619Z,101531.38
2023-04-27T21:24:22.338Z,101529.94
2023-04-27T21:26:48.982Z,101538.03
2023-04-27T21:29:15.443Z,101525.63
2023-04-27T21:31:41.903Z,101522.75
2023-04-27T21:34:08.318Z,101515.81
2023-04-27T21:36:34.757Z,101513.88
2023-04-27T21:39:01.249Z,101509.09
2023-04-27T21:41:27.707Z,101510.50
2023-04-27T21:43:54.521Z,101510.38
2023-04-27T21:46:23.156Z,101510.03
2023-04-27T21:48:49.613Z,101508.47
2023-04-27T21:51:16.034Z,101506.19
2023-04-27T21:53:42.461Z,101513.50
2023-04-27T21:56:09.008Z,101506.63
2023-04-27T21:58:35.384Z,101503.59
2023-04-27T22:01:02.299Z,101511.25
2023-04-27T22:03:28.936Z,101492.19
2023-04-27T22:05:57.425Z,101498.38
2023-04-27T22:08:23.914Z,101491.19
2023-04-27T22:10:50.348Z,101489.59
2023-04-27T22:13:19.165Z,101489.59
2023-04-27T22:15:46.396Z,101486.09
2023-04-27T22:18:14.342Z,101495.13
2023-04-27T22:20:42.276Z,101496.72
2023-04-27T22:23:09.409Z,101491.13
2023-04-27T22:25:36.122Z,101487.47
2023-04-27T22:28:02.627Z,101485.09
2023-04-27T22:30:29.312Z,101485.22
2023-04-27T22:32:56.284Z,101471.09
2023-04-27T22:35:27.072Z,101472.34
2023-04-27T22:37:55.655Z,101478.84
2023-04-27T22:40:22.345Z,101477.75
2023-04-27T22:42:48.859Z,101475.50
2023-04-27T22:45:15.327Z,101474.69
2023-04-27T22:47:41.878Z,101476.75
2023-04-27T22:50:08.604Z,101475.13
2023-04-27T22:52:37.156Z,101467.97
2023-04-27T22:55:04.277Z,101460.78
2023-04-27T22:57:30.872Z,101466.00
2023-04-27T22:59:57.342Z,101461.59
2023-04-27T23:02:23.942Z,101459.19
2023-04-27T23:04:50.916Z,101462.50
2023-04-27T23:07:18.311Z,101455.34
2023-04-27T23:09:45.709Z,101450.09
2023-04-27T23:12:12.190Z,101452.94
2023-04-27T23:14:39.993Z,101446.59
2023-04-27T23:17:07.358Z,101447.97
2023-04-27T23:19:34.468Z,101454.00
2023-04-27T23:22:01.765Z,101445.22
2023-04-27T23:24:31.311Z,101447.75
2023-04-27T23:26:58.351Z,101442.84
2023-04-27T23:29:25.359Z,101435.72
2023-04-27T23:31:51.898Z,101447.91
2023-04-27T23:34:18.690Z,101437.41
2023-04-27T23:36:45.205Z,101429.31
2023-04-27T23:39:11.644Z,101431.84
2023-04-27T23:41:38.256Z,101423.06
2023-04-27T23:44:04.767Z,101434.16
2023-04-27T23:46:31.229Z,101429.69
2023-04-27T23:48:57.785Z,101419.22
2023-04-27T23:51:24.276Z,101420.94
2023-04-27T23:53:50.743Z,101409.22
2023-04-27T23:56:18.056Z,101424.25
2023-04-27T23:58:44.821Z,101420.72
